sensor_id;sensor_type;location;lat;lon;timestamp;temperature;humidity
51327;DHT22;37412;52.836;6.362;2024-03-17T00:02:44;4.30;99.90
51327;DHT22;37412;52.836;6.362;2024-03-17T00:05:30;4.30;99.90
51327;DHT22;37412;52.836;6.362;2024-03-17T00:08:16;4.30;99.90
51327;DHT22;37412;52.836;6.362;2024-03-17T00:11:02;4.30;99.90
51327;DHT22;37412;52.836;6.362;2024-03-17T00:13:48;4.30;99.90
51327;DHT22;37412;52.836;6.362;2024-03-17T00:16:34;4.30;99.90
51327;DHT22;37412;52.836;6.362;2024-03-17T00:19:20;4.30;99.90
51327;DHT22;37412;52.836;6.362;2024-03-17T00:22:09;4.30;99.90
51327;DHT22;37412;52.836;6.362;2024-03-17T00:24:59;5.00;99.90
51327;DHT22;37412;52.836;6.362;2024-03-17T00:27:45;4.30;99.90
51327;DHT22;37412;52.836;6.362;2024-03-17T00:30:33;4.20;99.90
51327;DHT22;37412;52.836;6.362;2024-03-17T00:33:19;4.30;99.90
51327;DHT22;37412;52.836;6.362;2024-03-17T00:36:06;4.30;99.90
51327;DHT22;37412;52.836;6.362;2024-03-17T00:38:52;4.30;99.90
51327;DHT22;37412;52.836;6.362;2024-03-17T00:41:38;4.30;99.90
51327;DHT22;37412;52.836;6.362;2024-03-17T00:44:24;4.30;99.90
51327;DHT22;37412;52.836;6.362;2024-03-17T00:47:10;4.30;99.90
51327;DHT22;37412;52.836;6.362;2024-03-17T00:49:56;4.30;99.90
51327;DHT22;37412;52.836;6.362;2024-03-17T00:52:42;4.30;99.90
51327;DHT22;37412;52.836;6.362;2024-03-17T00:55:28;4.20;99.90
51327;DHT22;37412;52.836;6.362;2024-03-17T00:58:14;4.30;99.90
51327;DHT22;37412;52.836;6.362;2024-03-17T01:01:00;4.20;99.90
51327;DHT22;37412;52.836;6.362;2024-03-17T01:03:47;4.20;99.90
51327;DHT22;37412;52.836;6.362;2024-03-17T01:06:33;4.20;99.90
51327;DHT22;37412;52.836;6.362;2024-03-17T01:09:19;4.20;99.90
51327;DHT22;37412;52.836;6.362;2024-03-17T01:12:06;4.20;99.90
51327;DHT22;37412;52.836;6.362;2024-03-17T01:14:52;4.10;99.90
51327;DHT22;37412;52.836;6.362;2024-03-17T01:17:38;4.10;99.90
51327;DHT22;37412;52.836;6.362;2024-03-17T01:20:24;4.10;99.90
51327;DHT22;37412;52.836;6.362;2024-03-17T01:23:10;4.00;99.90
51327;DHT22;37412;52.836;6.362;2024-03-17T01:25:56;4.00;99.90
51327;DHT22;37412;52.836;6.362;2024-03-17T01:28:42;4.00;99.90
51327;DHT22;37412;52.836;6.362;2024-03-17T01:31:28;3.90;99.90
51327;DHT22;37412;52.836;6.362;2024-03-17T01:34:15;3.90;99.90
51327;DHT22;37412;52.836;6.362;2024-03-17T01:37:01;3.80;99.90
51327;DHT22;37412;52.836;6.362;2024-03-17T01:39:47;3.70;99.90
51327;DHT22;37412;52.836;6.362;2024-03-17T01:42:39;3.70;99.90
51327;DHT22;37412;52.836;6.362;2024-03-17T01:45:30;3.60;99.90
51327;DHT22;37412;52.836;6.362;2024-03-17T01:48:17;3.60;99.90
51327;DHT22;37412;52.836;6.362;2024-03-17T01:51:05;3.50;99.90
51327;DHT22;37412;52.836;6.362;2024-03-17T01:53:51;3.50;99.90
51327;DHT22;37412;52.836;6.362;2024-03-17T01:56:39;3.40;99.90
51327;DHT22;37412;52.836;6.362;2024-03-17T01:59:26;3.40;99.90
51327;DHT22;37412;52.836;6.362;2024-03-17T02:02:12;3.40;99.90
51327;DHT22;37412;52.836;6.362;2024-03-17T02:04:58;3.40;99.90
51327;DHT22;37412;52.836;6.362;2024-03-17T02:07:44;3.30;99.90
51327;DHT22;37412;52.836;6.362;2024-03-17T02:10:30;3.30;99.90
51327;DHT22;37412;52.836;6.362;2024-03-17T02:13:16;3.30;99.90
51327;DHT22;37412;52.836;6.362;2024-03-17T02:16:02;3.60;99.90
51327;DHT22;37412;52.836;6.362;2024-03-17T02:18:49;3.40;99.90
51327;DHT22;37412;52.836;6.362;2024-03-17T02:21:35;3.30;99.90
51327;DHT22;37412;52.836;6.362;2024-03-17T02:24:21;3.30;99.90
51327;DHT22;37412;52.836;6.362;2024-03-17T02:27:07;4.50;99.90
51327;DHT22;37412;52.836;6.362;2024-03-17T02:29:53;3.20;99.90
51327;DHT22;37412;52.836;6.362;2024-03-17T02:32:38;3.20;99.90
51327;DHT22;37412;52.836;6.362;2024-03-17T02:35:25;3.10;99.90
51327;DHT22;37412;52.836;6.362;2024-03-17T02:38:15;3.10;99.90
51327;DHT22;37412;52.836;6.362;2024-03-17T02:41:21;3.00;99.90
51327;DHT22;37412;52.836;6.362;2024-03-17T02:44:07;3.00;99.90
51327;DHT22;37412;52.836;6.362;2024-03-17T02:46:53;3.00;99.90
51327;DHT22;37412;52.836;6.362;2024-03-17T02:49:39;3.10;99.90
51327;DHT22;37412;52.836;6.362;2024-03-17T02:52:29;3.80;99.90
51327;DHT22;37412;52.836;6.362;2024-03-17T02:55:15;3.10;99.90
51327;DHT22;37412;52.836;6.362;2024-03-17T02:58:02;3.60;99.90
51327;DHT22;37412;52.836;6.362;2024-03-17T03:00:48;3.20;99.90
51327;DHT22;37412;52.836;6.362;2024-03-17T03:03:34;3.20;99.90
51327;DHT22;37412;52.836;6.362;2024-03-17T03:06:20;3.20;99.90
51327;DHT22;37412;52.836;6.362;2024-03-17T03:09:06;3.30;99.90
51327;DHT22;37412;52.836;6.362;2024-03-17T03:11:58;4.70;99.90
51327;DHT22;37412;52.836;6.362;2024-03-17T03:14:48;3.40;99.90
51327;DHT22;37412;52.836;6.362;2024-03-17T03:17:34;3.50;99.90
51327;DHT22;37412;52.836;6.362;2024-03-17T03:20:20;5.30;99.90
51327;DHT22;37412;52.836;6.362;2024-03-17T03:23:07;3.60;99.90
51327;DHT22;37412;52.836;6.362;2024-03-17T03:26:01;3.60;99.90
51327;DHT22;37412;52.836;6.362;2024-03-17T03:28:50;3.70;99.90
51327;DHT22;37412;52.836;6.362;2024-03-17T03:31:36;3.70;99.90
51327;DHT22;37412;52.836;6.362;2024-03-17T03:34:24;3.80;99.90
51327;DHT22;37412;52.836;6.362;2024-03-17T03:37:11;3.80;99.90
51327;DHT22;37412;52.836;6.362;2024-03-17T03:39:57;4.10;99.90
51327;DHT22;37412;52.836;6.362;2024-03-17T03:42:45;3.90;99.90
51327;DHT22;37412;52.836;6.362;2024-03-17T03:45:31;3.90;99.90
51327;DHT22;37412;52.836;6.362;2024-03-17T03:48:17;3.90;99.90
51327;DHT22;37412;52.836;6.362;2024-03-17T03:51:05;3.90;99.90
51327;DHT22;37412;52.836;6.362;2024-03-17T03:53:51;3.90;99.90
51327;DHT22;37412;52.836;6.362;2024-03-17T03:56:37;4.70;99.90
51327;DHT22;37412;52.836;6.362;2024-03-17T03:59:24;4.00;99.90
51327;DHT22;37412;52.836;6.362;2024-03-17T04:02:10;4.00;99.90
51327;DHT22;37412;52.836;6.362;2024-03-17T04:04:56;4.00;99.90
51327;DHT22;37412;52.836;6.362;2024-03-17T04:07:43;4.00;99.90
51327;DHT22;37412;52.836;6.362;2024-03-17T04:10:31;4.10;99.90
51327;DHT22;37412;52.836;6.362;2024-03-17T04:13:17;4.10;99.90
51327;DHT22;37412;52.836;6.362;2024-03-17T04:16:05;4.10;99.90
51327;DHT22;37412;52.836;6.362;2024-03-17T04:18:52;4.10;99.90
51327;DHT22;37412;52.836;6.362;2024-03-17T04:21:37;4.20;99.90
51327;DHT22;37412;52.836;6.362;2024-03-17T04:24:23;4.20;99.90
51327;DHT22;37412;52.836;6.362;2024-03-17T04:27:09;4.20;99.90
51327;DHT22;37412;52.836;6.362;2024-03-17T04:29:57;4.20;99.90
51327;DHT22;37412;52.836;6.362;2024-03-17T04:32:44;4.20;99.90
51327;DHT22;37412;52.836;6.362;2024-03-17T04:35:30;4.30;99.90
51327;DHT22;37412;52.836;6.362;2024-03-17T04:38:17;4.30;99.90
51327;DHT22;37412;52.836;6.362;2024-03-17T04:41:05;4.30;99.90
51327;DHT22;37412;52.836;6.362;2024-03-17T04:43:51;4.30;99.90
51327;DHT22;37412;52.836;6.362;2024-03-17T04:46:37;4.30;99.90
51327;DHT22;37412;52.836;6.362;2024-03-17T04:49:22;4.30;99.90
51327;DHT22;37412;52.836;6.362;2024-03-17T04:52:09;4.30;99.90
51327;DHT22;37412;52.836;6.362;2024-03-17T04:54:56;4.30;99.90
51327;DHT22;37412;52.836;6.362;2024-03-17T04:57:42;4.40;99.90
51327;DHT22;37412;52.836;6.362;2024-03-17T05:00:28;4.40;99.90
51327;DHT22;37412;52.836;6.362;2024-03-17T05:03:14;4.40;99.90
51327;DHT22;37412;52.836;6.362;2024-03-17T05:06:03;4.50;99.90
51327;DHT22;37412;52.836;6.362;2024-03-17T05:08:49;4.40;99.90
51327;DHT22;37412;52.836;6.362;2024-03-17T05:11:35;4.60;99.90
51327;DHT22;37412;52.836;6.362;2024-03-17T05:14:23;4.50;99.90
51327;DHT22;37412;52.836;6.362;2024-03-17T05:17:09;4.50;99.90
51327;DHT22;37412;52.836;6.362;2024-03-17T05:19:55;4.50;99.90
51327;DHT22;37412;52.836;6.362;2024-03-17T05:22:41;4.50;99.90
51327;DHT22;37412;52.836;6.362;2024-03-17T05:25:28;4.50;99.90
51327;DHT22;37412;52.836;6.362;2024-03-17T05:28:14;4.50;99.90
51327;DHT22;37412;52.836;6.362;2024-03-17T05:30:59;4.50;99.90
51327;DHT22;37412;52.836;6.362;2024-03-17T05:33:45;4.50;99.90
51327;DHT22;37412;52.836;6.362;2024-03-17T05:36:31;4.50;99.90
51327;DHT22;37412;52.836;6.362;2024-03-17T05:39:19;4.50;99.90
51327;DHT22;37412;52.836;6.362;2024-03-17T05:42:06;4.50;99.90
51327;DHT22;37412;52.836;6.362;2024-03-17T05:44:52;4.50;99.90
51327;DHT22;37412;52.836;6.362;2024-03-17T05:47:38;4.50;99.90
51327;DHT22;37412;52.836;6.362;2024-03-17T05:50:27;4.60;99.90
51327;DHT22;37412;52.836;6.362;2024-03-17T05:53:13;4.60;99.90
51327;DHT22;37412;52.836;6.362;2024-03-17T05:56:00;5.60;99.90
51327;DHT22;37412;52.836;6.362;2024-03-17T05:58:46;4.60;99.90
51327;DHT22;37412;52.836;6.362;2024-03-17T06:01:32;4.60;99.90
51327;DHT22;37412;52.836;6.362;2024-03-17T06:04:18;4.50;99.90
51327;DHT22;37412;52.836;6.362;2024-03-17T06:07:04;4.60;99.90
51327;DHT22;37412;52.836;6.362;2024-03-17T06:09:51;4.60;99.90
51327;DHT22;37412;52.836;6.362;2024-03-17T06:12:37;4.70;99.90
51327;DHT22;37412;52.836;6.362;2024-03-17T06:15:24;4.70;99.90
51327;DHT22;37412;52.836;6.362;2024-03-17T06:18:12;4.70;99.90
51327;DHT22;37412;52.836;6.362;2024-03-17T06:20:59;4.70;99.90
51327;DHT22;37412;52.836;6.362;2024-03-17T06:23:45;4.80;99.90
51327;DHT22;37412;52.836;6.362;2024-03-17T06:26:32;4.80;99.90
51327;DHT22;37412;52.836;6.362;2024-03-17T06:29:19;4.80;99.90
51327;DHT22;37412;52.836;6.362;2024-03-17T06:32:05;5.00;99.90
51327;DHT22;37412;52.836;6.362;2024-03-17T06:34:51;4.90;99.90
51327;DHT22;37412;52.836;6.362;2024-03-17T06:37:37;4.90;99.90
51327;DHT22;37412;52.836;6.362;2024-03-17T06:40:24;5.00;99.90
51327;DHT22;37412;52.836;6.362;2024-03-17T06:43:11;5.00;99.90
51327;DHT22;37412;52.836;6.362;2024-03-17T06:45:58;5.60;99.90
51327;DHT22;37412;52.836;6.362;2024-03-17T06:48:44;5.00;99.90
51327;DHT22;37412;52.836;6.362;2024-03-17T06:51:30;5.00;99.90
51327;DHT22;37412;52.836;6.362;2024-03-17T06:54:16;5.10;99.90
51327;DHT22;37412;52.836;6.362;2024-03-17T06:57:02;5.10;99.90
51327;DHT22;37412;52.836;6.362;2024-03-17T06:59:48;5.10;99.90
51327;DHT22;37412;52.836;6.362;2024-03-17T07:02:34;5.20;99.90
51327;DHT22;37412;52.836;6.362;2024-03-17T07:05:21;5.20;99.90
51327;DHT22;37412;52.836;6.362;2024-03-17T07:08:07;5.30;99.90
51327;DHT22;37412;52.836;6.362;2024-03-17T07:11:03;5.40;99.90
51327;DHT22;37412;52.836;6.362;2024-03-17T07:13:50;5.50;99.90
51327;DHT22;37412;52.836;6.362;2024-03-17T07:16:36;5.70;99.90
51327;DHT22;37412;52.836;6.362;2024-03-17T07:19:22;6.20;99.90
51327;DHT22;37412;52.836;6.362;2024-03-17T07:22:08;6.20;99.90
51327;DHT22;37412;52.836;6.362;2024-03-17T07:24:55;6.50;99.90
51327;DHT22;37412;52.836;6.362;2024-03-17T07:27:45;6.80;99.90
51327;DHT22;37412;52.836;6.362;2024-03-17T07:30:31;7.00;99.90
51327;DHT22;37412;52.836;6.362;2024-03-17T07:33:18;7.50;99.90
51327;DHT22;37412;52.836;6.362;2024-03-17T07:36:06;7.60;99.90
51327;DHT22;37412;52.836;6.362;2024-03-17T07:38:54;7.50;99.90
51327;DHT22;37412;52.836;6.362;2024-03-17T07:41:40;7.70;99.90
51327;DHT22;37412;52.836;6.362;2024-03-17T07:44:26;7.50;99.90
51327;DHT22;37412;52.836;6.362;2024-03-17T07:47:14;7.80;99.90
51327;DHT22;37412;52.836;6.362;2024-03-17T07:50:01;7.70;99.90
51327;DHT22;37412;52.836;6.362;2024-03-17T07:52:49;8.00;99.90
51327;DHT22;37412;52.836;6.362;2024-03-17T07:55:36;8.20;99.90
51327;DHT22;37412;52.836;6.362;2024-03-17T07:58:22;8.20;99.90
51327;DHT22;37412;52.836;6.362;2024-03-17T08:01:12;8.00;99.90
51327;DHT22;37412;52.836;6.362;2024-03-17T08:03:58;7.90;99.90
51327;DHT22;37412;52.836;6.362;2024-03-17T08:06:46;7.80;99.90
51327;DHT22;37412;52.836;6.362;2024-03-17T08:09:32;7.70;99.90
51327;DHT22;37412;52.836;6.362;2024-03-17T08:12:18;7.70;99.90
51327;DHT22;37412;52.836;6.362;2024-03-17T08:15:04;7.80;99.90
51327;DHT22;37412;52.836;6.362;2024-03-17T08:17:50;8.00;99.90
51327;DHT22;37412;52.836;6.362;2024-03-17T08:20:40;8.40;99.90
51327;DHT22;37412;52.836;6.362;2024-03-17T08:23:26;8.70;99.90
51327;DHT22;37412;52.836;6.362;2024-03-17T08:26:15;8.80;99.90
51327;DHT22;37412;52.836;6.362;2024-03-17T08:29:01;9.00;99.90
51327;DHT22;37412;52.836;6.362;2024-03-17T08:31:47;9.00;99.90
51327;DHT22;37412;52.836;6.362;2024-03-17T08:34:35;9.00;99.90
51327;DHT22;37412;52.836;6.362;2024-03-17T08:37:21;9.10;99.90
51327;DHT22;37412;52.836;6.362;2024-03-17T08:40:11;9.30;99.90
51327;DHT22;37412;52.836;6.362;2024-03-17T08:42:57;9.40;99.90
51327;DHT22;37412;52.836;6.362;2024-03-17T08:45:43;10.10;99.90
51327;DHT22;37412;52.836;6.362;2024-03-17T08:48:35;9.80;99.90
51327;DHT22;37412;52.836;6.362;2024-03-17T08:51:21;9.80;99.90
51327;DHT22;37412;52.836;6.362;2024-03-17T08:54:07;9.80;99.90
51327;DHT22;37412;52.836;6.362;2024-03-17T08:56:56;9.60;99.90
51327;DHT22;37412;52.836;6.362;2024-03-17T08:59:42;9.90;99.90
51327;DHT22;37412;52.836;6.362;2024-03-17T09:02:27;9.90;99.90
51327;DHT22;37412;52.836;6.362;2024-03-17T09:05:14;9.50;99.90
51327;DHT22;37412;52.836;6.362;2024-03-17T09:08:00;9.40;99.90
51327;DHT22;37412;52.836;6.362;2024-03-17T09:10:48;9.30;99.90
51327;DHT22;37412;52.836;6.362;2024-03-17T09:13:34;9.30;99.90
51327;DHT22;37412;52.836;6.362;2024-03-17T09:16:21;9.30;99.90
51327;DHT22;37412;52.836;6.362;2024-03-17T09:19:09;9.50;99.90
51327;DHT22;37412;52.836;6.362;2024-03-17T09:21:58;9.60;99.90
51327;DHT22;37412;52.836;6.362;2024-03-17T09:24:45;9.70;99.90
51327;DHT22;37412;52.836;6.362;2024-03-17T09:27:33;9.80;99.90
51327;DHT22;37412;52.836;6.362;2024-03-17T09:30:19;10.00;99.90
51327;DHT22;37412;52.836;6.362;2024-03-17T09:33:05;10.00;99.90
51327;DHT22;37412;52.836;6.362;2024-03-17T09:36:01;10.00;99.90
51327;DHT22;37412;52.836;6.362;2024-03-17T09:38:47;10.10;99.90
51327;DHT22;37412;52.836;6.362;2024-03-17T09:41:33;10.30;99.90
51327;DHT22;37412;52.836;6.362;2024-03-17T09:44:19;10.50;99.90
51327;DHT22;37412;52.836;6.362;2024-03-17T09:47:06;10.70;99.90
51327;DHT22;37412;52.836;6.362;2024-03-17T09:49:53;10.70;99.90
51327;DHT22;37412;52.836;6.362;2024-03-17T09:52:38;10.80;99.90
51327;DHT22;37412;52.836;6.362;2024-03-17T09:55:24;10.80;99.90
51327;DHT22;37412;52.836;6.362;2024-03-17T09:58:17;10.70;99.90
51327;DHT22;37412;52.836;6.362;2024-03-17T10:01:06;10.80;99.90
51327;DHT22;37412;52.836;6.362;2024-03-17T10:03:52;10.80;99.90
51327;DHT22;37412;52.836;6.362;2024-03-17T10:06:44;10.80;99.90
51327;DHT22;37412;52.836;6.362;2024-03-17T10:09:30;10.80;99.90
51327;DHT22;37412;52.836;6.362;2024-03-17T10:12:27;10.90;99.90
51327;DHT22;37412;52.836;6.362;2024-03-17T10:15:13;10.90;99.90
51327;DHT22;37412;52.836;6.362;2024-03-17T10:17:59;11.00;99.90
51327;DHT22;37412;52.836;6.362;2024-03-17T10:20:45;11.00;99.90
51327;DHT22;37412;52.836;6.362;2024-03-17T10:23:31;10.80;99.90
51327;DHT22;37412;52.836;6.362;2024-03-17T10:26:17;10.80;99.90
51327;DHT22;37412;52.836;6.362;2024-03-17T10:29:03;10.90;99.90
51327;DHT22;37412;52.836;6.362;2024-03-17T10:31:52;10.90;99.90
51327;DHT22;37412;52.836;6.362;2024-03-17T10:34:39;10.80;99.90
51327;DHT22;37412;52.836;6.362;2024-03-17T10:37:25;10.80;99.90
51327;DHT22;37412;52.836;6.362;2024-03-17T10:40:12;10.70;99.90
51327;DHT22;37412;52.836;6.362;2024-03-17T10:42:59;10.70;99.90
51327;DHT22;37412;52.836;6.362;2024-03-17T10:45:45;10.60;99.90
51327;DHT22;37412;52.836;6.362;2024-03-17T10:48:32;10.60;99.90
51327;DHT22;37412;52.836;6.362;2024-03-17T10:51:20;10.50;99.90
51327;DHT22;37412;52.836;6.362;2024-03-17T10:54:06;10.50;99.90
51327;DHT22;37412;52.836;6.362;2024-03-17T10:56:57;10.60;99.90
51327;DHT22;37412;52.836;6.362;2024-03-17T10:59:47;10.60;99.90
51327;DHT22;37412;52.836;6.362;2024-03-17T11:02:33;10.60;99.90
51327;DHT22;37412;52.836;6.362;2024-03-17T11:05:25;10.60;99.90
51327;DHT22;37412;52.836;6.362;2024-03-17T11:08:16;10.60;99.90
51327;DHT22;37412;52.836;6.362;2024-03-17T11:11:02;10.60;99.90
51327;DHT22;37412;52.836;6.362;2024-03-17T11:13:49;10.70;99.90
51327;DHT22;37412;52.836;6.362;2024-03-17T11:16:36;10.70;99.90
51327;DHT22;37412;52.836;6.362;2024-03-17T11:19:22;10.80;99.90
51327;DHT22;37412;52.836;6.362;2024-03-17T11:28:44;11.30;99.90
51327;DHT22;37412;52.836;6.362;2024-03-17T11:34:30;11.40;99.90
51327;DHT22;37412;52.836;6.362;2024-03-17T11:37:40;11.40;99.90
51327;DHT22;37412;52.836;6.362;2024-03-17T11:40:23;11.40;99.90
51327;DHT22;37412;52.836;6.362;2024-03-17T11:43:13;11.40;99.90
51327;DHT22;37412;52.836;6.362;2024-03-17T11:46:02;11.50;99.90
51327;DHT22;37412;52.836;6.362;2024-03-17T11:48:49;11.50;99.90
51327;DHT22;37412;52.836;6.362;2024-03-17T11:51:38;11.50;99.90
51327;DHT22;37412;52.836;6.362;2024-03-17T11:54:28;11.50;99.90
51327;DHT22;37412;52.836;6.362;2024-03-17T11:57:21;11.50;99.90
51327;DHT22;37412;52.836;6.362;2024-03-17T12:00:15;11.60;99.90
51327;DHT22;37412;52.836;6.362;2024-03-17T12:03:04;11.60;99.90
51327;DHT22;37412;52.836;6.362;2024-03-17T12:05:50;11.70;99.90
51327;DHT22;37412;52.836;6.362;2024-03-17T12:08:36;11.70;99.90
51327;DHT22;37412;52.836;6.362;2024-03-17T12:11:22;11.70;99.90
51327;DHT22;37412;52.836;6.362;2024-03-17T12:14:09;11.60;99.90
51327;DHT22;37412;52.836;6.362;2024-03-17T12:16:59;11.60;99.90
51327;DHT22;37412;52.836;6.362;2024-03-17T12:19:45;11.60;99.90
51327;DHT22;37412;52.836;6.362;2024-03-17T12:22:31;11.60;99.90
51327;DHT22;37412;52.836;6.362;2024-03-17T12:25:22;11.70;99.90
51327;DHT22;37412;52.836;6.362;2024-03-17T12:28:18;11.70;99.90
51327;DHT22;37412;52.836;6.362;2024-03-17T12:31:03;11.70;99.90
51327;DHT22;37412;52.836;6.362;2024-03-17T12:33:49;11.70;99.90
51327;DHT22;37412;52.836;6.362;2024-03-17T12:36:35;11.70;99.90
51327;DHT22;37412;52.836;6.362;2024-03-17T12:39:22;11.60;99.90
51327;DHT22;37412;52.836;6.362;2024-03-17T12:45:00;11.70;99.90
51327;DHT22;37412;52.836;6.362;2024-03-17T12:47:52;11.80;99.90
51327;DHT22;37412;52.836;6.362;2024-03-17T12:50:44;11.90;99.90
51327;DHT22;37412;52.836;6.362;2024-03-17T12:53:30;11.90;99.90
51327;DHT22;37412;52.836;6.362;2024-03-17T12:56:22;11.90;99.90
51327;DHT22;37412;52.836;6.362;2024-03-17T12:59:36;12.00;99.90
51327;DHT22;37412;52.836;6.362;2024-03-17T13:02:41;12.00;99.90
51327;DHT22;37412;52.836;6.362;2024-03-17T13:05:27;12.00;99.90
51327;DHT22;37412;52.836;6.362;2024-03-17T13:08:13;12.00;99.90
51327;DHT22;37412;52.836;6.362;2024-03-17T13:10:59;12.00;99.90
51327;DHT22;37412;52.836;6.362;2024-03-17T13:13:45;12.00;99.90
51327;DHT22;37412;52.836;6.362;2024-03-17T13:16:30;12.00;99.90
51327;DHT22;37412;52.836;6.362;2024-03-17T13:19:17;12.00;99.90
51327;DHT22;37412;52.836;6.362;2024-03-17T13:22:03;11.90;99.90
51327;DHT22;37412;52.836;6.362;2024-03-17T13:24:49;11.90;99.90
51327;DHT22;37412;52.836;6.362;2024-03-17T13:27:35;11.90;99.90
51327;DHT22;37412;52.836;6.362;2024-03-17T13:30:22;12.00;99.90
51327;DHT22;37412;52.836;6.362;2024-03-17T13:33:09;11.90;99.90
51327;DHT22;37412;52.836;6.362;2024-03-17T13:35:56;12.10;99.90
51327;DHT22;37412;52.836;6.362;2024-03-17T13:38:42;12.10;99.90
51327;DHT22;37412;52.836;6.362;2024-03-17T13:41:28;12.10;99.90
51327;DHT22;37412;52.836;6.362;2024-03-17T13:44:14;12.20;99.90
51327;DHT22;37412;52.836;6.362;2024-03-17T13:47:00;12.10;99.90
51327;DHT22;37412;52.836;6.362;2024-03-17T13:49:49;12.10;99.90
51327;DHT22;37412;52.836;6.362;2024-03-17T13:52:35;12.10;99.90
51327;DHT22;37412;52.836;6.362;2024-03-17T13:55:21;12.10;99.90
51327;DHT22;37412;52.836;6.362;2024-03-17T13:58:07;12.10;99.90
51327;DHT22;37412;52.836;6.362;2024-03-17T14:00:53;12.10;99.90
51327;DHT22;37412;52.836;6.362;2024-03-17T14:03:39;12.00;99.90
51327;DHT22;37412;52.836;6.362;2024-03-17T14:06:26;12.00;99.90
51327;DHT22;37412;52.836;6.362;2024-03-17T14:09:12;12.00;99.90
51327;DHT22;37412;52.836;6.362;2024-03-17T14:11:58;12.10;99.90
51327;DHT22;37412;52.836;6.362;2024-03-17T14:14:44;11.90;99.90
51327;DHT22;37412;52.836;6.362;2024-03-17T14:17:30;11.90;99.90
51327;DHT22;37412;52.836;6.362;2024-03-17T14:20:15;11.90;99.90
51327;DHT22;37412;52.836;6.362;2024-03-17T14:23:03;11.90;99.90
51327;DHT22;37412;52.836;6.362;2024-03-17T14:25:49;11.90;99.90
51327;DHT22;37412;52.836;6.362;2024-03-17T14:28:35;11.80;99.90
51327;DHT22;37412;52.836;6.362;2024-03-17T14:31:22;11.80;99.90
51327;DHT22;37412;52.836;6.362;2024-03-17T14:34:08;11.80;99.90
51327;DHT22;37412;52.836;6.362;2024-03-17T14:36:55;11.80;99.90
51327;DHT22;37412;52.836;6.362;2024-03-17T14:39:40;11.80;99.90
51327;DHT22;37412;52.836;6.362;2024-03-17T14:42:26;11.70;99.90
51327;DHT22;37412;52.836;6.362;2024-03-17T14:45:12;11.70;99.90
51327;DHT22;37412;52.836;6.362;2024-03-17T14:47:58;11.90;99.90
51327;DHT22;37412;52.836;6.362;2024-03-17T14:50:44;11.70;99.90
51327;DHT22;37412;52.836;6.362;2024-03-17T14:53:30;11.70;99.90
51327;DHT22;37412;52.836;6.362;2024-03-17T14:56:16;11.80;99.90
51327;DHT22;37412;52.836;6.362;2024-03-17T14:59:02;11.80;99.90
51327;DHT22;37412;52.836;6.362;2024-03-17T15:01:48;11.90;99.90
51327;DHT22;37412;52.836;6.362;2024-03-17T15:04:35;11.80;99.90
51327;DHT22;37412;52.836;6.362;2024-03-17T15:07:20;11.70;99.90
51327;DHT22;37412;52.836;6.362;2024-03-17T15:10:09;11.70;99.90
51327;DHT22;37412;52.836;6.362;2024-03-17T15:12:55;11.80;99.90
51327;DHT22;37412;52.836;6.362;2024-03-17T15:15:41;11.70;99.90
51327;DHT22;37412;52.836;6.362;2024-03-17T15:18:27;11.70;99.90
51327;DHT22;37412;52.836;6.362;2024-03-17T15:21:13;11.70;99.90
51327;DHT22;37412;52.836;6.362;2024-03-17T15:23:58;11.70;99.90
51327;DHT22;37412;52.836;6.362;2024-03-17T15:26:44;11.70;99.90
51327;DHT22;37412;52.836;6.362;2024-03-17T15:29:31;11.70;99.90
51327;DHT22;37412;52.836;6.362;2024-03-17T15:32:17;11.70;99.90
51327;DHT22;37412;52.836;6.362;2024-03-17T15:35:03;11.70;99.90
51327;DHT22;37412;52.836;6.362;2024-03-17T15:37:50;11.60;99.90
51327;DHT22;37412;52.836;6.362;2024-03-17T15:40:37;11.60;99.90
51327;DHT22;37412;52.836;6.362;2024-03-17T15:43:23;11.50;99.90
51327;DHT22;37412;52.836;6.362;2024-03-17T15:46:11;11.50;99.90
51327;DHT22;37412;52.836;6.362;2024-03-17T15:48:59;11.50;99.90
51327;DHT22;37412;52.836;6.362;2024-03-17T15:51:45;11.50;99.90
51327;DHT22;37412;52.836;6.362;2024-03-17T15:54:31;11.50;99.90
51327;DHT22;37412;52.836;6.362;2024-03-17T15:57:17;11.40;99.90
51327;DHT22;37412;52.836;6.362;2024-03-17T16:00:03;11.40;99.90
51327;DHT22;37412;52.836;6.362;2024-03-17T16:02:53;11.40;99.90
51327;DHT22;37412;52.836;6.362;2024-03-17T16:05:39;11.50;99.90
51327;DHT22;37412;52.836;6.362;2024-03-17T16:08:26;11.40;99.90
51327;DHT22;37412;52.836;6.362;2024-03-17T16:11:13;11.30;99.90
51327;DHT22;37412;52.836;6.362;2024-03-17T16:14:01;11.30;99.90
51327;DHT22;37412;52.836;6.362;2024-03-17T16:16:48;11.30;99.90
51327;DHT22;37412;52.836;6.362;2024-03-17T16:19:34;11.30;99.90
51327;DHT22;37412;52.836;6.362;2024-03-17T16:22:20;11.30;99.90
51327;DHT22;37412;52.836;6.362;2024-03-17T16:25:06;11.30;99.90
51327;DHT22;37412;52.836;6.362;2024-03-17T16:27:52;11.30;99.90
51327;DHT22;37412;52.836;6.362;2024-03-17T16:30:40;11.20;99.90
51327;DHT22;37412;52.836;6.362;2024-03-17T16:33:26;11.20;99.90
51327;DHT22;37412;52.836;6.362;2024-03-17T16:36:12;11.20;99.90
51327;DHT22;37412;52.836;6.362;2024-03-17T16:38:58;11.20;99.90
51327;DHT22;37412;52.836;6.362;2024-03-17T16:41:48;11.20;99.90
51327;DHT22;37412;52.836;6.362;2024-03-17T16:44:45;11.20;99.90
51327;DHT22;37412;52.836;6.362;2024-03-17T16:47:32;11.20;99.90
51327;DHT22;37412;52.836;6.362;2024-03-17T16:50:20;11.20;99.90
51327;DHT22;37412;52.836;6.362;2024-03-17T16:53:06;11.20;99.90
51327;DHT22;37412;52.836;6.362;2024-03-17T16:55:52;11.20;99.90
51327;DHT22;37412;52.836;6.362;2024-03-17T16:58:38;11.10;99.90
51327;DHT22;37412;52.836;6.362;2024-03-17T17:01:24;11.10;99.90
51327;DHT22;37412;52.836;6.362;2024-03-17T17:04:10;11.10;99.90
51327;DHT22;37412;52.836;6.362;2024-03-17T17:06:56;11.10;99.90
51327;DHT22;37412;52.836;6.362;2024-03-17T17:09:42;11.10;99.90
51327;DHT22;37412;52.836;6.362;2024-03-17T17:12:28;11.10;99.90
51327;DHT22;37412;52.836;6.362;2024-03-17T17:15:14;11.00;99.90
51327;DHT22;37412;52.836;6.362;2024-03-17T17:18:00;11.00;99.90
51327;DHT22;37412;52.836;6.362;2024-03-17T17:20:46;11.00;99.90
51327;DHT22;37412;52.836;6.362;2024-03-17T17:23:32;11.00;99.90
51327;DHT22;37412;52.836;6.362;2024-03-17T17:26:19;10.90;99.90
51327;DHT22;37412;52.836;6.362;2024-03-17T17:29:08;10.90;99.90
51327;DHT22;37412;52.836;6.362;2024-03-17T17:31:56;10.90;99.90
51327;DHT22;37412;52.836;6.362;2024-03-17T17:34:42;10.80;99.90
51327;DHT22;37412;52.836;6.362;2024-03-17T17:37:28;10.80;99.90
51327;DHT22;37412;52.836;6.362;2024-03-17T17:40:17;10.70;99.90
51327;DHT22;37412;52.836;6.362;2024-03-17T17:43:03;10.70;99.90
51327;DHT22;37412;52.836;6.362;2024-03-17T17:45:49;10.70;99.90
51327;DHT22;37412;52.836;6.362;2024-03-17T17:48:35;10.70;99.90
51327;DHT22;37412;52.836;6.362;2024-03-17T17:51:22;10.60;99.90
51327;DHT22;37412;52.836;6.362;2024-03-17T17:54:08;10.50;99.90
51327;DHT22;37412;52.836;6.362;2024-03-17T17:56:54;10.50;99.90
51327;DHT22;37412;52.836;6.362;2024-03-17T17:59:40;10.50;99.90